sensor_id;sensor_type;location;lat;lon;timestamp;temperature;humidity
7331;DHT22;3706;49.198;7.064;2023-08-07T00:00:57;11.40;99.90
7331;DHT22;3706;49.198;7.064;2023-08-07T00:03:24;11.30;99.90
7331;DHT22;3706;49.198;7.064;2023-08-07T00:05:51;11.20;99.90
7331;DHT22;3706;49.198;7.064;2023-08-07T00:08:18;11.10;99.90
7331;DHT22;3706;49.198;7.064;2023-08-07T00:10:46;11.10;99.90
7331;DHT22;3706;49.198;7.064;2023-08-07T00:13:13;11.20;99.90
7331;DHT22;3706;49.198;7.064;2023-08-07T00:15:40;11.20;99.90
7331;DHT22;3706;49.198;7.064;2023-08-07T00:18:07;11.10;99.90
7331;DHT22;3706;49.198;7.064;2023-08-07T00:20:34;11.10;99.90
7331;DHT22;3706;49.198;7.064;2023-08-07T00:23:01;11.00;99.90
7331;DHT22;3706;49.198;7.064;2023-08-07T00:25:28;11.10;99.90
7331;DHT22;3706;49.198;7.064;2023-08-07T00:27:56;11.00;99.90
7331;DHT22;3706;49.198;7.064;2023-08-07T00:30:23;11.00;99.90
7331;DHT22;3706;49.198;7.064;2023-08-07T00:32:50;11.00;99.90
7331;DHT22;3706;49.198;7.064;2023-08-07T00:35:17;11.00;99.90
7331;DHT22;3706;49.198;7.064;2023-08-07T00:37:44;11.00;99.90
7331;DHT22;3706;49.198;7.064;2023-08-07T00:40:11;10.90;99.90
7331;DHT22;3706;49.198;7.064;2023-08-07T00:42:38;10.90;99.90
7331;DHT22;3706;49.198;7.064;2023-08-07T00:45:07;10.80;99.90
7331;DHT22;3706;49.198;7.064;2023-08-07T00:47:34;10.80;99.90
7331;DHT22;3706;49.198;7.064;2023-08-07T00:50:04;10.70;99.90
7331;DHT22;3706;49.198;7.064;2023-08-07T00:52:32;10.70;99.90
7331;DHT22;3706;49.198;7.064;2023-08-07T00:54:59;10.60;99.90
7331;DHT22;3706;49.198;7.064;2023-08-07T00:57:26;10.60;99.90
7331;DHT22;3706;49.198;7.064;2023-08-07T00:59:54;10.60;99.90
7331;DHT22;3706;49.198;7.064;2023-08-07T01:02:22;10.60;99.90
7331;DHT22;3706;49.198;7.064;2023-08-07T01:04:49;10.60;99.90
7331;DHT22;3706;49.198;7.064;2023-08-07T01:07:16;10.50;99.90
7331;DHT22;3706;49.198;7.064;2023-08-07T01:09:43;10.60;99.90
7331;DHT22;3706;49.198;7.064;2023-08-07T01:12:15;10.60;99.90
7331;DHT22;3706;49.198;7.064;2023-08-07T01:14:51;10.60;99.90
7331;DHT22;3706;49.198;7.064;2023-08-07T01:17:22;10.50;99.90
7331;DHT22;3706;49.198;7.064;2023-08-07T01:19:51;10.50;99.90
7331;DHT22;3706;49.198;7.064;2023-08-07T01:22:20;10.50;99.90
7331;DHT22;3706;49.198;7.064;2023-08-07T01:24:48;10.50;99.90
7331;DHT22;3706;49.198;7.064;2023-08-07T01:27:30;10.50;99.90
7331;DHT22;3706;49.198;7.064;2023-08-07T01:30:05;10.40;99.90
7331;DHT22;3706;49.198;7.064;2023-08-07T01:32:43;10.40;99.90
7331;DHT22;3706;49.198;7.064;2023-08-07T01:35:15;10.40;99.90
7331;DHT22;3706;49.198;7.064;2023-08-07T01:37:45;10.50;99.90
7331;DHT22;3706;49.198;7.064;2023-08-07T01:40:13;10.40;99.90
7331;DHT22;3706;49.198;7.064;2023-08-07T01:42:40;10.30;99.90
7331;DHT22;3706;49.198;7.064;2023-08-07T01:45:08;10.30;99.90
7331;DHT22;3706;49.198;7.064;2023-08-07T01:47:35;10.30;99.90
7331;DHT22;3706;49.198;7.064;2023-08-07T01:50:02;10.30;99.90
7331;DHT22;3706;49.198;7.064;2023-08-07T01:52:29;10.30;99.90
7331;DHT22;3706;49.198;7.064;2023-08-07T01:54:58;10.40;99.90
7331;DHT22;3706;49.198;7.064;2023-08-07T01:57:25;10.50;99.90
7331;DHT22;3706;49.198;7.064;2023-08-07T01:59:52;10.50;99.90
7331;DHT22;3706;49.198;7.064;2023-08-07T02:02:19;10.60;99.90
7331;DHT22;3706;49.198;7.064;2023-08-07T02:04:46;10.60;99.90
7331;DHT22;3706;49.198;7.064;2023-08-07T02:07:12;10.50;99.90
7331;DHT22;3706;49.198;7.064;2023-08-07T02:09:39;10.60;99.90
7331;DHT22;3706;49.198;7.064;2023-08-07T02:12:08;10.50;99.90
7331;DHT22;3706;49.198;7.064;2023-08-07T02:14:35;10.50;99.90
7331;DHT22;3706;49.198;7.064;2023-08-07T02:17:02;10.50;99.90
7331;DHT22;3706;49.198;7.064;2023-08-07T02:19:29;10.50;99.90
7331;DHT22;3706;49.198;7.064;2023-08-07T02:21:56;10.40;99.90
7331;DHT22;3706;49.198;7.064;2023-08-07T02:24:23;10.50;99.90
7331;DHT22;3706;49.198;7.064;2023-08-07T02:26:50;10.40;99.90
7331;DHT22;3706;49.198;7.064;2023-08-07T02:29:18;10.40;99.90
7331;DHT22;3706;49.198;7.064;2023-08-07T02:31:45;10.30;99.90
7331;DHT22;3706;49.198;7.064;2023-08-07T02:34:12;10.30;99.90
7331;DHT22;3706;49.198;7.064;2023-08-07T02:36:39;10.30;99.90
7331;DHT22;3706;49.198;7.064;2023-08-07T02:39:07;10.40;99.90
7331;DHT22;3706;49.198;7.064;2023-08-07T02:41:34;10.30;99.90
7331;DHT22;3706;49.198;7.064;2023-08-07T02:44:00;10.30;99.90
7331;DHT22;3706;49.198;7.064;2023-08-07T02:46:29;10.30;99.90
7331;DHT22;3706;49.198;7.064;2023-08-07T02:48:56;10.20;99.90
7331;DHT22;3706;49.198;7.064;2023-08-07T02:51:22;10.10;99.90
7331;DHT22;3706;49.198;7.064;2023-08-07T02:53:49;10.10;99.90
7331;DHT22;3706;49.198;7.064;2023-08-07T02:56:16;10.00;99.90
7331;DHT22;3706;49.198;7.064;2023-08-07T02:58:43;9.90;99.90
7331;DHT22;3706;49.198;7.064;2023-08-07T03:01:10;10.00;99.90
7331;DHT22;3706;49.198;7.064;2023-08-07T03:03:39;9.90;99.90
7331;DHT22;3706;49.198;7.064;2023-08-07T03:06:06;9.90;99.90
7331;DHT22;3706;49.198;7.064;2023-08-07T03:08:33;10.00;99.90
7331;DHT22;3706;49.198;7.064;2023-08-07T03:11:00;10.00;99.90
7331;DHT22;3706;49.198;7.064;2023-08-07T03:13:27;10.00;99.90
7331;DHT22;3706;49.198;7.064;2023-08-07T03:15:59;10.00;99.90
7331;DHT22;3706;49.198;7.064;2023-08-07T03:18:26;10.00;99.90
7331;DHT22;3706;49.198;7.064;2023-08-07T03:20:54;10.00;99.90
7331;DHT22;3706;49.198;7.064;2023-08-07T03:23:22;10.00;99.90
7331;DHT22;3706;49.198;7.064;2023-08-07T03:25:49;10.10;99.90
7331;DHT22;3706;49.198;7.064;2023-08-07T03:28:16;10.00;99.90
7331;DHT22;3706;49.198;7.064;2023-08-07T03:30:43;10.00;99.90
7331;DHT22;3706;49.198;7.064;2023-08-07T03:33:11;9.90;99.90
7331;DHT22;3706;49.198;7.064;2023-08-07T03:35:37;9.80;99.90
7331;DHT22;3706;49.198;7.064;2023-08-07T03:38:06;9.60;99.90
7331;DHT22;3706;49.198;7.064;2023-08-07T03:40:33;9.60;99.90
7331;DHT22;3706;49.198;7.064;2023-08-07T03:43:00;9.60;99.90
7331;DHT22;3706;49.198;7.064;2023-08-07T03:45:27;9.60;99.90
7331;DHT22;3706;49.198;7.064;2023-08-07T03:47:54;9.60;99.90
7331;DHT22;3706;49.198;7.064;2023-08-07T03:50:20;9.70;99.90
7331;DHT22;3706;49.198;7.064;2023-08-07T03:52:47;9.70;99.90
7331;DHT22;3706;49.198;7.064;2023-08-07T03:55:16;9.70;99.90
7331;DHT22;3706;49.198;7.064;2023-08-07T03:57:43;9.60;99.90
7331;DHT22;3706;49.198;7.064;2023-08-07T04:00:11;9.50;99.90
7331;DHT22;3706;49.198;7.064;2023-08-07T04:02:39;9.60;99.90
7331;DHT22;3706;49.198;7.064;2023-08-07T04:05:06;9.60;99.90
7331;DHT22;3706;49.198;7.064;2023-08-07T04:07:33;9.60;99.90
7331;DHT22;3706;49.198;7.064;2023-08-07T04:10:00;9.70;99.90
7331;DHT22;3706;49.198;7.064;2023-08-07T04:12:28;9.80;99.90
7331;DHT22;3706;49.198;7.064;2023-08-07T04:14:55;9.80;99.90
7331;DHT22;3706;49.198;7.064;2023-08-07T04:17:22;9.80;99.90
7331;DHT22;3706;49.198;7.064;2023-08-07T04:19:49;9.80;99.90
7331;DHT22;3706;49.198;7.064;2023-08-07T04:22:15;9.70;99.90
7331;DHT22;3706;49.198;7.064;2023-08-07T04:24:42;9.70;99.90
7331;DHT22;3706;49.198;7.064;2023-08-07T04:27:09;9.80;99.90
7331;DHT22;3706;49.198;7.064;2023-08-07T04:29:37;9.90;99.90
7331;DHT22;3706;49.198;7.064;2023-08-07T04:32:05;9.80;99.90
7331;DHT22;3706;49.198;7.064;2023-08-07T04:34:32;9.80;99.90
7331;DHT22;3706;49.198;7.064;2023-08-07T04:37:00;9.80;99.90
7331;DHT22;3706;49.198;7.064;2023-08-07T04:39:27;9.80;99.90
7331;DHT22;3706;49.198;7.064;2023-08-07T04:41:55;9.80;99.90
7331;DHT22;3706;49.198;7.064;2023-08-07T04:44:22;9.90;99.90
7331;DHT22;3706;49.198;7.064;2023-08-07T04:46:51;10.00;99.90
7331;DHT22;3706;49.198;7.064;2023-08-07T04:49:18;10.20;99.90
7331;DHT22;3706;49.198;7.064;2023-08-07T04:51:44;10.40;99.90
7331;DHT22;3706;49.198;7.064;2023-08-07T04:54:11;10.60;99.90
7331;DHT22;3706;49.198;7.064;2023-08-07T04:56:38;10.80;99.90
7331;DHT22;3706;49.198;7.064;2023-08-07T04:59:06;11.00;99.90
7331;DHT22;3706;49.198;7.064;2023-08-07T05:01:33;11.10;99.90
7331;DHT22;3706;49.198;7.064;2023-08-07T05:04:01;11.10;99.90
7331;DHT22;3706;49.198;7.064;2023-08-07T05:06:28;11.10;99.90
7331;DHT22;3706;49.198;7.064;2023-08-07T05:08:55;11.00;99.90
7331;DHT22;3706;49.198;7.064;2023-08-07T05:11:22;11.10;99.90
7331;DHT22;3706;49.198;7.064;2023-08-07T05:13:49;11.10;99.90
7331;DHT22;3706;49.198;7.064;2023-08-07T05:16:15;11.10;99.90
7331;DHT22;3706;49.198;7.064;2023-08-07T05:18:44;11.10;99.90
7331;DHT22;3706;49.198;7.064;2023-08-07T05:21:12;11.30;99.90
7331;DHT22;3706;49.198;7.064;2023-08-07T05:23:39;11.40;99.90
7331;DHT22;3706;49.198;7.064;2023-08-07T05:26:06;11.60;99.90
7331;DHT22;3706;49.198;7.064;2023-08-07T05:28:33;11.90;99.90
7331;DHT22;3706;49.198;7.064;2023-08-07T05:31:00;12.30;99.90
7331;DHT22;3706;49.198;7.064;2023-08-07T05:33:27;12.80;99.90
7331;DHT22;3706;49.198;7.064;2023-08-07T05:35:54;13.40;99.90
7331;DHT22;3706;49.198;7.064;2023-08-07T05:38:22;13.60;99.90
7331;DHT22;3706;49.198;7.064;2023-08-07T05:40:49;13.60;99.90
7331;DHT22;3706;49.198;7.064;2023-08-07T05:43:16;13.60;99.90
7331;DHT22;3706;49.198;7.064;2023-08-07T05:45:43;13.70;99.90
7331;DHT22;3706;49.198;7.064;2023-08-07T05:48:12;13.70;99.90
7331;DHT22;3706;49.198;7.064;2023-08-07T05:50:38;13.90;99.90
7331;DHT22;3706;49.198;7.064;2023-08-07T05:53:05;14.10;99.90
7331;DHT22;3706;49.198;7.064;2023-08-07T05:55:34;14.40;99.90
7331;DHT22;3706;49.198;7.064;2023-08-07T05:58:01;14.80;99.90
7331;DHT22;3706;49.198;7.064;2023-08-07T06:00:28;15.10;99.90
7331;DHT22;3706;49.198;7.064;2023-08-07T06:02:55;15.60;99.90
7331;DHT22;3706;49.198;7.064;2023-08-07T06:05:22;16.30;99.90
7331;DHT22;3706;49.198;7.064;2023-08-07T06:07:49;16.80;99.90
7331;DHT22;3706;49.198;7.064;2023-08-07T06:10:16;17.30;99.90
7331;DHT22;3706;49.198;7.064;2023-08-07T06:12:44;17.80;99.90
7331;DHT22;3706;49.198;7.064;2023-08-07T06:15:11;18.50;99.90
7331;DHT22;3706;49.198;7.064;2023-08-07T06:17:38;19.30;99.90
7331;DHT22;3706;49.198;7.064;2023-08-07T06:20:07;19.60;99.90
7331;DHT22;3706;49.198;7.064;2023-08-07T06:22:34;19.70;99.90
7331;DHT22;3706;49.198;7.064;2023-08-07T06:25:01;20.00;99.90
7331;DHT22;3706;49.198;7.064;2023-08-07T06:27:28;20.50;99.90
7331;DHT22;3706;49.198;7.064;2023-08-07T06:29:57;20.60;99.90
7331;DHT22;3706;49.198;7.064;2023-08-07T06:32:25;21.10;99.90
7331;DHT22;3706;49.198;7.064;2023-08-07T06:34:52;21.70;99.90
7331;DHT22;3706;49.198;7.064;2023-08-07T06:37:19;22.10;99.90
7331;DHT22;3706;49.198;7.064;2023-08-07T06:39:46;22.60;99.90
7331;DHT22;3706;49.198;7.064;2023-08-07T06:42:13;23.30;99.70
7331;DHT22;3706;49.198;7.064;2023-08-07T06:44:40;23.60;97.80
7331;DHT22;3706;49.198;7.064;2023-08-07T06:47:08;23.30;96.00
7331;DHT22;3706;49.198;7.064;2023-08-07T06:49:36;22.80;96.90
7331;DHT22;3706;49.198;7.064;2023-08-07T06:52:03;22.90;96.30
7331;DHT22;3706;49.198;7.064;2023-08-07T06:54:30;23.10;95.90
7331;DHT22;3706;49.198;7.064;2023-08-07T06:56:57;23.40;95.90
7331;DHT22;3706;49.198;7.064;2023-08-07T06:59:24;23.70;93.10
7331;DHT22;3706;49.198;7.064;2023-08-07T07:01:52;23.60;93.00
7331;DHT22;3706;49.198;7.064;2023-08-07T07:04:20;23.20;92.80
7331;DHT22;3706;49.198;7.064;2023-08-07T07:06:47;22.70;93.70
7331;DHT22;3706;49.198;7.064;2023-08-07T07:09:14;22.60;94.20
7331;DHT22;3706;49.198;7.064;2023-08-07T07:11:42;22.30;93.60
7331;DHT22;3706;49.198;7.064;2023-08-07T07:14:10;21.80;94.10
7331;DHT22;3706;49.198;7.064;2023-08-07T07:16:37;21.80;94.50
7331;DHT22;3706;49.198;7.064;2023-08-07T07:19:04;21.90;94.10
7331;DHT22;3706;49.198;7.064;2023-08-07T07:21:35;22.00;93.10
7331;DHT22;3706;49.198;7.064;2023-08-07T07:24:02;22.00;94.00
7331;DHT22;3706;49.198;7.064;2023-08-07T07:26:29;22.30;93.40
7331;DHT22;3706;49.198;7.064;2023-08-07T07:28:56;22.60;92.60
7331;DHT22;3706;49.198;7.064;2023-08-07T07:31:23;22.80;92.30
7331;DHT22;3706;49.198;7.064;2023-08-07T07:33:50;22.80;92.10
7331;DHT22;3706;49.198;7.064;2023-08-07T07:36:17;22.80;91.40
7331;DHT22;3706;49.198;7.064;2023-08-07T07:38:47;22.80;91.70
7331;DHT22;3706;49.198;7.064;2023-08-07T07:41:14;22.70;91.90
7331;DHT22;3706;49.198;7.064;2023-08-07T07:43:41;22.90;91.80
7331;DHT22;3706;49.198;7.064;2023-08-07T07:46:08;23.20;91.60
7331;DHT22;3706;49.198;7.064;2023-08-07T07:48:35;23.50;90.40
7331;DHT22;3706;49.198;7.064;2023-08-07T07:51:02;23.90;90.10
7331;DHT22;3706;49.198;7.064;2023-08-07T07:53:29;24.00;88.50
7331;DHT22;3706;49.198;7.064;2023-08-07T07:55:58;24.10;88.40
7331;DHT22;3706;49.198;7.064;2023-08-07T07:58:25;24.70;86.30
7331;DHT22;3706;49.198;7.064;2023-08-07T08:00:52;25.00;83.60
7331;DHT22;3706;49.198;7.064;2023-08-07T08:03:20;24.90;82.80
7331;DHT22;3706;49.198;7.064;2023-08-07T08:05:49;24.90;84.00
7331;DHT22;3706;49.198;7.064;2023-08-07T08:08:16;25.00;82.60
7331;DHT22;3706;49.198;7.064;2023-08-07T08:10:44;24.90;82.50
7331;DHT22;3706;49.198;7.064;2023-08-07T08:13:14;25.20;81.60
7331;DHT22;3706;49.198;7.064;2023-08-07T08:15:40;24.90;81.60
7331;DHT22;3706;49.198;7.064;2023-08-07T08:18:07;24.50;82.90
7331;DHT22;3706;49.198;7.064;2023-08-07T08:20:34;24.10;83.00
7331;DHT22;3706;49.198;7.064;2023-08-07T08:23:01;24.10;83.50
7331;DHT22;3706;49.198;7.064;2023-08-07T08:25:28;24.10;82.60
7331;DHT22;3706;49.198;7.064;2023-08-07T08:27:55;23.40;83.80
7331;DHT22;3706;49.198;7.064;2023-08-07T08:30:23;23.60;84.30
7331;DHT22;3706;49.198;7.064;2023-08-07T08:32:50;24.10;82.20
7331;DHT22;3706;49.198;7.064;2023-08-07T08:35:17;23.40;82.30
7331;DHT22;3706;49.198;7.064;2023-08-07T08:37:44;23.50;83.30
7331;DHT22;3706;49.198;7.064;2023-08-07T08:40:11;23.50;83.60
7331;DHT22;3706;49.198;7.064;2023-08-07T08:42:43;23.10;84.10
7331;DHT22;3706;49.198;7.064;2023-08-07T08:45:12;22.50;85.50
7331;DHT22;3706;49.198;7.064;2023-08-07T08:47:41;21.60;87.60
7331;DHT22;3706;49.198;7.064;2023-08-07T08:50:11;20.90;89.50
7331;DHT22;3706;49.198;7.064;2023-08-07T08:52:41;20.50;90.70
7331;DHT22;3706;49.198;7.064;2023-08-07T08:55:10;20.60;91.80
7331;DHT22;3706;49.198;7.064;2023-08-07T08:57:38;21.60;90.30
7331;DHT22;3706;49.198;7.064;2023-08-07T09:00:07;22.40;89.50
7331;DHT22;3706;49.198;7.064;2023-08-07T09:02:45;22.50;86.60
7331;DHT22;3706;49.198;7.064;2023-08-07T09:05:14;21.50;87.70
7331;DHT22;3706;49.198;7.064;2023-08-07T09:07:42;20.70;90.30
7331;DHT22;3706;49.198;7.064;2023-08-07T09:10:10;20.00;91.20
7331;DHT22;3706;49.198;7.064;2023-08-07T09:12:41;19.80;92.10
7331;DHT22;3706;49.198;7.064;2023-08-07T09:15:11;20.40;91.90
7331;DHT22;3706;49.198;7.064;2023-08-07T09:17:44;21.60;91.20
7331;DHT22;3706;49.198;7.064;2023-08-07T09:20:12;23.00;89.50
7331;DHT22;3706;49.198;7.064;2023-08-07T09:22:40;23.40;86.40
7331;DHT22;3706;49.198;7.064;2023-08-07T09:25:08;22.70;87.60
7331;DHT22;3706;49.198;7.064;2023-08-07T09:27:36;22.30;89.50
7331;DHT22;3706;49.198;7.064;2023-08-07T09:30:05;23.30;88.70
7331;DHT22;3706;49.198;7.064;2023-08-07T09:32:33;24.70;85.90
7331;DHT22;3706;49.198;7.064;2023-08-07T09:35:03;25.90;82.60
7331;DHT22;3706;49.198;7.064;2023-08-07T09:37:31;27.00;78.10
7331;DHT22;3706;49.198;7.064;2023-08-07T09:40:00;27.50;74.50
7331;DHT22;3706;49.198;7.064;2023-08-07T09:42:31;28.30;71.20
7331;DHT22;3706;49.198;7.064;2023-08-07T09:45:00;28.60;70.50
7331;DHT22;3706;49.198;7.064;2023-08-07T09:47:27;28.50;69.10
7331;DHT22;3706;49.198;7.064;2023-08-07T09:49:55;27.70;70.00
7331;DHT22;3706;49.198;7.064;2023-08-07T09:52:24;27.20;69.50
7331;DHT22;3706;49.198;7.064;2023-08-07T09:54:56;26.50;70.10
7331;DHT22;3706;49.198;7.064;2023-08-07T09:57:23;25.50;72.00
7331;DHT22;3706;49.198;7.064;2023-08-07T09:59:50;24.40;75.10
7331;DHT22;3706;49.198;7.064;2023-08-07T10:02:17;23.60;77.20
7331;DHT22;3706;49.198;7.064;2023-08-07T10:04:46;23.20;77.80
7331;DHT22;3706;49.198;7.064;2023-08-07T10:07:14;23.00;79.60
7331;DHT22;3706;49.198;7.064;2023-08-07T10:09:42;23.50;79.10
7331;DHT22;3706;49.198;7.064;2023-08-07T10:12:10;24.20;77.80
7331;DHT22;3706;49.198;7.064;2023-08-07T10:14:38;24.20;77.50
7331;DHT22;3706;49.198;7.064;2023-08-07T10:17:07;24.00;78.00
7331;DHT22;3706;49.198;7.064;2023-08-07T10:19:34;23.80;79.40
7331;DHT22;3706;49.198;7.064;2023-08-07T10:22:05;23.20;80.00
7331;DHT22;3706;49.198;7.064;2023-08-07T10:24:34;22.30;80.40
7331;DHT22;3706;49.198;7.064;2023-08-07T10:27:06;21.80;81.00
7331;DHT22;3706;49.198;7.064;2023-08-07T10:29:34;21.40;81.90
7331;DHT22;3706;49.198;7.064;2023-08-07T10:32:03;21.70;82.80
7331;DHT22;3706;49.198;7.064;2023-08-07T10:34:33;22.80;82.30
7331;DHT22;3706;49.198;7.064;2023-08-07T10:37:00;23.30;79.10
7331;DHT22;3706;49.198;7.064;2023-08-07T10:39:27;23.20;79.00
7331;DHT22;3706;49.198;7.064;2023-08-07T10:41:55;22.50;80.80
7331;DHT22;3706;49.198;7.064;2023-08-07T10:44:24;21.70;81.80
7331;DHT22;3706;49.198;7.064;2023-08-07T10:46:54;21.00;84.40
7331;DHT22;3706;49.198;7.064;2023-08-07T10:49:31;20.80;85.50
7331;DHT22;3706;49.198;7.064;2023-08-07T10:51:59;21.20;85.70
7331;DHT22;3706;49.198;7.064;2023-08-07T10:54:28;22.20;82.80
7331;DHT22;3706;49.198;7.064;2023-08-07T10:56:55;22.20;81.20
7331;DHT22;3706;49.198;7.064;2023-08-07T10:59:23;21.90;81.30
7331;DHT22;3706;49.198;7.064;2023-08-07T11:01:51;21.60;83.00
7331;DHT22;3706;49.198;7.064;2023-08-07T11:04:18;21.70;83.90
7331;DHT22;3706;49.198;7.064;2023-08-07T11:06:47;22.00;83.70
7331;DHT22;3706;49.198;7.064;2023-08-07T11:09:15;22.40;82.10
7331;DHT22;3706;49.198;7.064;2023-08-07T11:11:43;22.70;82.10
7331;DHT22;3706;49.198;7.064;2023-08-07T11:14:11;23.10;82.00
7331;DHT22;3706;49.198;7.064;2023-08-07T11:16:40;23.60;79.70
7331;DHT22;3706;49.198;7.064;2023-08-07T11:19:08;23.30;80.20
7331;DHT22;3706;49.198;7.064;2023-08-07T11:21:35;23.30;79.80
7331;DHT22;3706;49.198;7.064;2023-08-07T11:24:03;24.10;79.00
7331;DHT22;3706;49.198;7.064;2023-08-07T11:26:30;25.30;76.00
7331;DHT22;3706;49.198;7.064;2023-08-07T11:28:57;26.30;73.60
7331;DHT22;3706;49.198;7.064;2023-08-07T11:31:24;26.50;71.10
7331;DHT22;3706;49.198;7.064;2023-08-07T11:33:55;25.80;72.20
7331;DHT22;3706;49.198;7.064;2023-08-07T11:36:23;24.80;74.20
7331;DHT22;3706;49.198;7.064;2023-08-07T11:38:50;23.80;75.40
7331;DHT22;3706;49.198;7.064;2023-08-07T11:41:18;23.30;77.40
7331;DHT22;3706;49.198;7.064;2023-08-07T11:43:45;22.80;79.30
7331;DHT22;3706;49.198;7.064;2023-08-07T11:46:13;22.60;81.40
7331;DHT22;3706;49.198;7.064;2023-08-07T11:48:42;23.00;81.20
7331;DHT22;3706;49.198;7.064;2023-08-07T11:51:11;23.40;81.10
7331;DHT22;3706;49.198;7.064;2023-08-07T11:53:39;23.20;78.60
7331;DHT22;3706;49.198;7.064;2023-08-07T11:56:08;22.50;81.00
7331;DHT22;3706;49.198;7.064;2023-08-07T11:58:37;22.40;83.00
7331;DHT22;3706;49.198;7.064;2023-08-07T12:01:04;22.40;82.60
7331;DHT22;3706;49.198;7.064;2023-08-07T12:03:33;22.10;84.20
7331;DHT22;3706;49.198;7.064;2023-08-07T12:06:05;21.90;82.20
7331;DHT22;3706;49.198;7.064;2023-08-07T12:08:35;21.60;84.00
7331;DHT22;3706;49.198;7.064;2023-08-07T12:11:03;21.60;84.30
7331;DHT22;3706;49.198;7.064;2023-08-07T12:13:31;22.40;83.70
7331;DHT22;3706;49.198;7.064;2023-08-07T12:16:01;23.20;81.70
7331;DHT22;3706;49.198;7.064;2023-08-07T12:18:30;23.40;79.50
7331;DHT22;3706;49.198;7.064;2023-08-07T12:20:59;23.20;80.60
7331;DHT22;3706;49.198;7.064;2023-08-07T12:23:27;23.80;81.40
7331;DHT22;3706;49.198;7.064;2023-08-07T12:25:55;24.70;79.70
7331;DHT22;3706;49.198;7.064;2023-08-07T12:28:22;25.70;77.20
7331;DHT22;3706;49.198;7.064;2023-08-07T12:30:50;26.30;75.00
7331;DHT22;3706;49.198;7.064;2023-08-07T12:33:17;27.00;73.00
7331;DHT22;3706;49.198;7.064;2023-08-07T12:35:45;27.40;71.30
7331;DHT22;3706;49.198;7.064;2023-08-07T12:38:12;26.80;72.40
7331;DHT22;3706;49.198;7.064;2023-08-07T12:40:41;26.40;74.20
7331;DHT22;3706;49.198;7.064;2023-08-07T12:43:09;26.30;72.80
7331;DHT22;3706;49.198;7.064;2023-08-07T12:45:36;26.20;73.30
7331;DHT22;3706;49.198;7.064;2023-08-07T12:48:04;25.60;74.00
7331;DHT22;3706;49.198;7.064;2023-08-07T12:50:31;24.80;75.50
7331;DHT22;3706;49.198;7.064;2023-08-07T12:52:58;24.40;75.20
7331;DHT22;3706;49.198;7.064;2023-08-07T12:55:25;24.10;76.60
7331;DHT22;3706;49.198;7.064;2023-08-07T12:57:55;24.00;76.70
7331;DHT22;3706;49.198;7.064;2023-08-07T13:00:24;23.80;76.70
7331;DHT22;3706;49.198;7.064;2023-08-07T13:02:52;23.40;77.00
7331;DHT22;3706;49.198;7.064;2023-08-07T13:05:21;22.80;77.40
7331;DHT22;3706;49.198;7.064;2023-08-07T13:07:48;22.50;78.90
7331;DHT22;3706;49.198;7.064;2023-08-07T13:10:17;22.50;78.80
7331;DHT22;3706;49.198;7.064;2023-08-07T13:12:46;22.90;79.20
7331;DHT22;3706;49.198;7.064;2023-08-07T13:15:15;23.00;78.60
7331;DHT22;3706;49.198;7.064;2023-08-07T13:17:43;23.00;79.50
7331;DHT22;3706;49.198;7.064;2023-08-07T13:20:12;22.90;80.00
7331;DHT22;3706;49.198;7.064;2023-08-07T13:22:39;22.50;80.20
7331;DHT22;3706;49.198;7.064;2023-08-07T13:25:08;21.90;82.30
7331;DHT22;3706;49.198;7.064;2023-08-07T13:27:35;21.40;84.20
7331;DHT22;3706;49.198;7.064;2023-08-07T13:30:03;20.90;85.00
7331;DHT22;3706;49.198;7.064;2023-08-07T13:32:30;20.50;84.80
7331;DHT22;3706;49.198;7.064;2023-08-07T13:34:58;20.30;86.00
7331;DHT22;3706;49.198;7.064;2023-08-07T13:37:25;20.20;85.60
7331;DHT22;3706;49.198;7.064;2023-08-07T13:39:52;20.30;86.20
7331;DHT22;3706;49.198;7.064;2023-08-07T13:42:20;20.40;86.50
7331;DHT22;3706;49.198;7.064;2023-08-07T13:44:46;20.70;85.50
7331;DHT22;3706;49.198;7.064;2023-08-07T13:47:13;20.90;84.30
7331;DHT22;3706;49.198;7.064;2023-08-07T13:49:43;21.40;84.60
7331;DHT22;3706;49.198;7.064;2023-08-07T13:52:11;22.00;82.40
7331;DHT22;3706;49.198;7.064;2023-08-07T13:54:38;22.50;80.60
7331;DHT22;3706;49.198;7.064;2023-08-07T13:57:06;23.00;80.30
7331;DHT22;3706;49.198;7.064;2023-08-07T13:59:32;23.30;79.60
7331;DHT22;3706;49.198;7.064;2023-08-07T14:01:59;23.40;78.60
7331;DHT22;3706;49.198;7.064;2023-08-07T14:04:28;23.10;79.50
7331;DHT22;3706;49.198;7.064;2023-08-07T14:06:55;22.50;79.90
7331;DHT22;3706;49.198;7.064;2023-08-07T14:09:23;21.90;81.90
7331;DHT22;3706;49.198;7.064;2023-08-07T14:11:50;21.50;82.40
7331;DHT22;3706;49.198;7.064;2023-08-07T14:14:17;21.50;83.40
7331;DHT22;3706;49.198;7.064;2023-08-07T14:16:44;21.60;82.60
7331;DHT22;3706;49.198;7.064;2023-08-07T14:19:11;21.70;83.20
7331;DHT22;3706;49.198;7.064;2023-08-07T14:21:38;21.70;82.20
7331;DHT22;3706;49.198;7.064;2023-08-07T14:24:05;21.80;81.10
7331;DHT22;3706;49.198;7.064;2023-08-07T14:26:34;21.90;80.80
7331;DHT22;3706;49.198;7.064;2023-08-07T14:29:00;22.10;80.60
7331;DHT22;3706;49.198;7.064;2023-08-07T14:31:27;22.30;81.00
7331;DHT22;3706;49.198;7.064;2023-08-07T14:33:54;22.40;79.00
7331;DHT22;3706;49.198;7.064;2023-08-07T14:36:22;22.50;79.80
7331;DHT22;3706;49.198;7.064;2023-08-07T14:38:49;22.90;79.50
7331;DHT22;3706;49.198;7.064;2023-08-07T14:41:17;23.00;79.40
7331;DHT22;3706;49.198;7.064;2023-08-07T14:43:46;22.70;79.30
7331;DHT22;3706;49.198;7.064;2023-08-07T14:46:13;22.30;78.10
7331;DHT22;3706;49.198;7.064;2023-08-07T14:48:40;21.90;79.70
7331;DHT22;3706;49.198;7.064;2023-08-07T14:51:07;21.70;80.20
7331;DHT22;3706;49.198;7.064;2023-08-07T14:53:34;21.60;80.70
7331;DHT22;3706;49.198;7.064;2023-08-07T14:56:01;21.80;81.10
7331;DHT22;3706;49.198;7.064;2023-08-07T14:58:28;22.10;80.40
7331;DHT22;3706;49.198;7.064;2023-08-07T15:00:59;22.20;79.90
7331;DHT22;3706;49.198;7.064;2023-08-07T15:03:26;22.20;79.70
7331;DHT22;3706;49.198;7.064;2023-08-07T15:05:53;22.20;79.60
7331;DHT22;3706;49.198;7.064;2023-08-07T15:08:20;22.10;80.40
7331;DHT22;3706;49.198;7.064;2023-08-07T15:10:47;22.10;81.00
7331;DHT22;3706;49.198;7.064;2023-08-07T15:13:14;22.20;81.20
7331;DHT22;3706;49.198;7.064;2023-08-07T15:15:40;22.20;80.60
7331;DHT22;3706;49.198;7.064;2023-08-07T15:18:09;22.20;80.40
7331;DHT22;3706;49.198;7.064;2023-08-07T15:20:36;22.10;80.70
7331;DHT22;3706;49.198;7.064;2023-08-07T15:23:03;22.10;80.90
7331;DHT22;3706;49.198;7.064;2023-08-07T15:25:30;22.10;80.00
7331;DHT22;3706;49.198;7.064;2023-08-07T15:27:57;22.00;80.90
7331;DHT22;3706;49.198;7.064;2023-08-07T15:30:27;22.10;82.10
7331;DHT22;3706;49.198;7.064;2023-08-07T15:32:54;22.20;81.70
7331;DHT22;3706;49.198;7.064;2023-08-07T15:35:22;22.30;81.10
7331;DHT22;3706;49.198;7.064;2023-08-07T15:37:49;22.30;81.20
7331;DHT22;3706;49.198;7.064;2023-08-07T15:40:16;22.20;81.40
7331;DHT22;3706;49.198;7.064;2023-08-07T15:42:43;22.00;82.20
7331;DHT22;3706;49.198;7.064;2023-08-07T15:45:11;21.90;82.10
7331;DHT22;3706;49.198;7.064;2023-08-07T15:47:38;21.80;82.70
7331;DHT22;3706;49.198;7.064;2023-08-07T15:50:06;21.60;83.20
7331;DHT22;3706;49.198;7.064;2023-08-07T15:52:34;21.50;84.40
7331;DHT22;3706;49.198;7.064;2023-08-07T15:55:01;21.40;83.80
7331;DHT22;3706;49.198;7.064;2023-08-07T15:57:28;21.20;83.80
7331;DHT22;3706;49.198;7.064;2023-08-07T15:59:56;21.20;84.70
7331;DHT22;3706;49.198;7.064;2023-08-07T16:02:23;21.10;84.50
7331;DHT22;3706;49.198;7.064;2023-08-07T16:04:50;20.90;84.30